Terminal Aerodrome Forecast
Issued by NWS Cleveland, OH

Home | Current Version | Previous Version | Text Only | Print | Product List | Glossary Off
Versions: 1 2 3 4 5 6 7 8 9 10 11 12 13 14 15 16 17 18

000
FTUS41 KCLE 211100
TAFMFD
TAF
KMFD 211120Z 2112/2212 18006KT P6SM BKN250
     FM211800 21010G18KT P6SM SCT100 BKN200
     FM220200 22010KT P6SM BKN040 OVC100
     FM220600 23010KT 5SM -SHRA OVC025=

USA.gov is the U.S. government's official web portal to all federal, state and local government web resources and services.